createdAt,value
2022-09-17T00:01:31.468Z,12.90
2022-09-17T00:04:04.271Z,12.90
2022-09-17T00:06:34.492Z,12.90
2022-09-17T00:09:02.429Z,12.90
2022-09-17T00:11:32.311Z,12.90
2022-09-17T00:14:04.002Z,13.00
2022-09-17T00:16:35.020Z,12.90
2022-09-17T00:19:03.674Z,12.90
2022-09-17T00:21:31.714Z,12.80
2022-09-17T00:24:02.524Z,12.70
2022-09-17T00:26:31.991Z,12.80
2022-09-17T00:29:01.875Z,12.70
2022-09-17T00:31:31.163Z,12.80
2022-09-17T00:34:00.546Z,12.70
2022-09-17T00:36:29.014Z,12.70
2022-09-17T00:38:59.526Z,12.70
2022-09-17T00:41:29.612Z,12.70
2022-09-17T00:43:59.363Z,12.70
2022-09-17T00:46:35.928Z,12.80
2022-09-17T00:49:07.252Z,12.80
2022-09-17T00:51:37.787Z,12.70
2022-09-17T00:54:09.624Z,12.70
2022-09-17T00:56:40.140Z,12.80
2022-09-17T00:59:10.424Z,12.80
2022-09-17T01:01:39.765Z,12.90
2022-09-17T01:04:07.910Z,12.60
2022-09-17T01:06:43.734Z,12.50
2022-09-17T01:09:26.131Z,12.60
2022-09-17T01:12:10.993Z,12.40
2022-09-17T01:15:01.332Z,12.40
2022-09-17T01:17:37.144Z,12.30
2022-09-17T01:20:49.055Z,12.30
2022-09-17T01:23:47.171Z,12.30
2022-09-17T01:26:35.252Z,12.30
2022-09-17T01:29:12.606Z,12.30
2022-09-17T01:31:51.393Z,12.30
2022-09-17T01:34:27.340Z,12.30
2022-09-17T01:37:03.546Z,12.40
2022-09-17T01:39:39.242Z,12.40
2022-09-17T01:42:18.854Z,12.40
2022-09-17T01:44:55.058Z,12.40
2022-09-17T01:47:27.442Z,12.40
2022-09-17T01:50:01.567Z,12.40
2022-09-17T01:52:32.852Z,12.40
2022-09-17T01:55:06.029Z,12.30
2022-09-17T01:57:37.508Z,12.30
2022-09-17T02:00:09.696Z,12.30
2022-09-17T02:02:44.044Z,12.20
2022-09-17T02:05:17.196Z,12.20
2022-09-17T02:07:50.940Z,12.30
2022-09-17T02:10:22.038Z,12.30
2022-09-17T02:12:54.144Z,12.30
2022-09-17T02:15:26.212Z,12.30
2022-09-17T02:17:59.458Z,12.30
2022-09-17T02:20:33.062Z,12.30
2022-09-17T02:23:06.661Z,12.40
2022-09-17T02:25:41.150Z,12.40
2022-09-17T02:28:15.038Z,12.30
2022-09-17T02:30:43.411Z,12.30
2022-09-17T02:33:15.471Z,12.30
2022-09-17T02:35:44.783Z,12.30
2022-09-17T02:38:12.621Z,12.30
2022-09-17T02:40:47.598Z,12.20
2022-09-17T02:43:24.440Z,12.20
2022-09-17T02:46:03.623Z,12.20
2022-09-17T02:49:11.637Z,12.20
2022-09-17T02:51:50.698Z,12.20
2022-09-17T02:54:25.747Z,12.10
2022-09-17T02:57:03.940Z,12.20
2022-09-17T02:59:41.868Z,12.20
2022-09-17T03:02:17.811Z,12.30
2022-09-17T03:04:49.863Z,12.30
2022-09-17T03:07:20.879Z,12.30
2022-09-17T03:09:48.836Z,12.40
2022-09-17T03:12:17.475Z,12.40
2022-09-17T03:14:45.551Z,12.40
2022-09-17T03:17:14.895Z,12.50
2022-09-17T03:19:42.817Z,12.40
2022-09-17T03:22:12.600Z,12.40
2022-09-17T03:24:40.567Z,12.40
2022-09-17T03:27:08.382Z,12.40
2022-09-17T03:29:36.382Z,12.30
2022-09-17T03:32:04.605Z,12.40
2022-09-17T03:34:32.526Z,12.40
2022-09-17T03:37:00.415Z,12.50
2022-09-17T03:39:29.683Z,12.50
2022-09-17T03:41:57.772Z,12.60
2022-09-17T03:44:25.816Z,12.60
2022-09-17T03:46:54.122Z,12.60
2022-09-17T03:49:23.807Z,12.70
2022-09-17T03:51:52.128Z,12.60
2022-09-17T03:54:19.945Z,12.60
2022-09-17T03:56:49.582Z,12.60
2022-09-17T03:59:17.875Z,12.60
2022-09-17T04:01:46.066Z,12.60
2022-09-17T04:04:13.968Z,12.50
2022-09-17T04:06:42.030Z,12.60
2022-09-17T04:09:09.974Z,12.50
2022-09-17T04:11:37.788Z,12.60
2022-09-17T04:14:07.347Z,12.50
2022-09-17T04:16:35.320Z,12.50
2022-09-17T04:19:03.798Z,12.50
2022-09-17T04:21:31.716Z,12.50
2022-09-17T04:23:59.946Z,12.50
2022-09-17T04:26:27.858Z,12.50
2022-09-17T04:28:55.793Z,12.50
2022-09-17T04:31:27.062Z,12.50
2022-09-17T04:33:55.243Z,12.50
2022-09-17T04:36:23.213Z,12.50
2022-09-17T04:38:51.350Z,12.50
2022-09-17T04:41:19.601Z,12.50
2022-09-17T04:43:47.807Z,12.50
2022-09-17T04:46:16.834Z,12.50
2022-09-17T04:48:46.202Z,12.50
2022-09-17T04:51:14.571Z,12.50
2022-09-17T04:53:42.411Z,12.60
2022-09-17T04:56:10.238Z,12.60
2022-09-17T04:58:38.203Z,12.50
2022-09-17T05:01:06.326Z,12.10
2022-09-17T05:03:34.275Z,12.00
2022-09-17T05:06:03.496Z,11.80
2022-09-17T05:08:31.334Z,11.70
2022-09-17T05:10:59.533Z,11.70
2022-09-17T05:13:27.442Z,11.70
2022-09-17T05:15:56.501Z,11.60
2022-09-17T05:18:24.511Z,11.70
2022-09-17T05:20:52.685Z,11.70
2022-09-17T05:23:21.927Z,11.70
2022-09-17T05:25:49.855Z,11.70
2022-09-17T05:28:17.868Z,11.80
2022-09-17T05:30:45.692Z,11.80
2022-09-17T05:33:13.567Z,11.70
2022-09-17T05:35:44.057Z,11.70
2022-09-17T05:38:12.359Z,11.60
2022-09-17T05:40:42.074Z,11.60
2022-09-17T05:43:11.478Z,11.70
2022-09-17T05:45:40.143Z,11.90
2022-09-17T05:48:12.669Z,11.80
2022-09-17T05:50:41.380Z,11.80
2022-09-17T05:53:12.288Z,11.80
2022-09-17T05:55:41.769Z,11.80
2022-09-17T05:58:12.944Z,11.90
2022-09-17T06:00:41.758Z,12.00
2022-09-17T06:03:10.374Z,12.00
2022-09-17T06:05:38.651Z,12.00
2022-09-17T06:08:06.936Z,12.10
2022-09-17T06:10:37.678Z,12.20
2022-09-17T06:13:07.280Z,12.30
2022-09-17T06:15:35.245Z,12.40
2022-09-17T06:18:03.252Z,12.50
2022-09-17T06:20:31.473Z,12.60
2022-09-17T06:22:59.712Z,12.60
2022-09-17T06:25:29.643Z,12.70
2022-09-17T06:27:57.669Z,12.80
2022-09-17T06:30:26.907Z,12.70
2022-09-17T06:32:55.095Z,12.60
2022-09-17T06:35:23.195Z,12.50
2022-09-17T06:37:51.266Z,12.50
2022-09-17T06:40:19.395Z,12.60
2022-09-17T06:42:47.444Z,12.60
2022-09-17T06:45:16.863Z,12.70
2022-09-17T06:47:46.472Z,12.90
2022-09-17T06:50:14.587Z,12.70
2022-09-17T06:52:50.149Z,12.60
2022-09-17T06:55:18.766Z,12.70
2022-09-17T06:57:47.247Z,12.70
2022-09-17T07:00:16.423Z,12.60
2022-09-17T07:02:55.518Z,12.60
2022-09-17T07:05:23.336Z,12.60
2022-09-17T07:07:51.453Z,12.50
2022-09-17T07:10:19.984Z,12.50
2022-09-17T07:12:49.912Z,12.50
2022-09-17T07:15:18.077Z,12.60
2022-09-17T07:17:47.688Z,12.70
2022-09-17T07:20:15.861Z,12.70
2022-09-17T07:22:43.935Z,12.80
2022-09-17T07:25:13.840Z,12.90
2022-09-17T07:27:41.654Z,13.00
2022-09-17T07:30:11.110Z,13.10
2022-09-17T07:32:39.183Z,13.10
2022-09-17T07:35:09.324Z,13.20
2022-09-17T07:37:37.296Z,13.30
2022-09-17T07:40:07.633Z,13.30
2022-09-17T07:42:35.585Z,13.40
2022-09-17T07:45:03.506Z,13.40
2022-09-17T07:47:31.559Z,13.50
2022-09-17T07:49:59.350Z,13.60
2022-09-17T07:52:28.563Z,13.70
2022-09-17T07:54:56.579Z,13.90
2022-09-17T07:57:24.447Z,14.00
2022-09-17T07:59:52.257Z,14.00
2022-09-17T08:02:24.059Z,13.90
2022-09-17T08:04:55.503Z,13.70
2022-09-17T08:07:23.425Z,13.50
2022-09-17T08:09:53.101Z,13.40
2022-09-17T08:12:22.817Z,13.30
2022-09-17T08:14:51.123Z,13.20
2022-09-17T08:17:19.124Z,13.20
2022-09-17T08:19:46.964Z,13.20
2022-09-17T08:22:14.898Z,13.20
2022-09-17T08:24:43.080Z,13.30
2022-09-17T08:27:12.987Z,13.40
2022-09-17T08:29:41.053Z,13.60
2022-09-17T08:32:08.995Z,13.70
2022-09-17T08:34:37.132Z,13.80
2022-09-17T08:37:05.259Z,13.80
2022-09-17T08:39:33.010Z,13.80
2022-09-17T08:42:10.155Z,13.70
2022-09-17T08:44:43.453Z,13.70
2022-09-17T08:47:16.467Z,13.80
2022-09-17T08:49:50.790Z,13.90
2022-09-17T08:52:42.521Z,14.10
2022-09-17T08:55:22.075Z,14.20
2022-09-17T08:57:57.758Z,14.10
2022-09-17T09:00:30.586Z,14.00
2022-09-17T09:03:14.953Z,14.00
2022-09-17T09:05:47.516Z,14.00
2022-09-17T09:08:23.564Z,14.00
2022-09-17T09:10:55.498Z,13.90
2022-09-17T09:13:26.884Z,14.00
2022-09-17T09:16:00.436Z,14.20
2022-09-17T09:18:31.527Z,14.30
2022-09-17T09:21:13.795Z,14.30
2022-09-17T09:23:52.563Z,14.10
2022-09-17T09:26:22.393Z,13.70
2022-09-17T09:29:06.997Z,13.50
2022-09-17T09:31:48.879Z,13.30
2022-09-17T09:34:18.089Z,13.20
2022-09-17T09:36:46.664Z,13.20
2022-09-17T09:39:21.862Z,13.30
2022-09-17T09:41:54.469Z,13.50
2022-09-17T09:44:25.479Z,13.60
2022-09-17T09:47:21.176Z,13.70
2022-09-17T09:50:13.696Z,13.80
2022-09-17T09:52:58.629Z,14.00
2022-09-17T09:55:54.642Z,14.10
2022-09-17T09:58:31.795Z,14.10
2022-09-17T10:00:59.786Z,14.10
2022-09-17T10:03:32.597Z,14.20
2022-09-17T10:06:02.238Z,14.30
2022-09-17T10:08:34.022Z,14.30
2022-09-17T10:11:04.831Z,14.40
2022-09-17T10:13:35.664Z,14.60
2022-09-17T10:16:19.035Z,14.60
2022-09-17T10:18:49.729Z,14.70
2022-09-17T10:21:22.427Z,14.60
2022-09-17T10:23:51.517Z,14.40
2022-09-17T10:26:25.210Z,14.30
2022-09-17T10:28:54.875Z,14.30
2022-09-17T10:31:23.092Z,14.30
2022-09-17T10:33:58.691Z,14.30
2022-09-17T10:36:41.955Z,14.40
2022-09-17T10:39:34.987Z,14.50
2022-09-17T10:42:05.230Z,14.60
2022-09-17T10:44:35.095Z,14.80
2022-09-17T10:47:08.956Z,14.90
2022-09-17T10:49:44.474Z,15.10
2022-09-17T10:52:26.240Z,15.20
2022-09-17T10:55:22.340Z,15.30
2022-09-17T10:58:03.231Z,15.20
2022-09-17T11:00:39.912Z,15.10
2022-09-17T11:03:50.079Z,14.80
2022-09-17T11:06:45.622Z,14.70
2022-09-17T11:09:25.808Z,14.60
2022-09-17T11:12:06.253Z,14.60
2022-09-17T11:14:50.856Z,14.70
2022-09-17T11:17:37.129Z,14.80
2022-09-17T11:20:08.915Z,14.90
2022-09-17T11:22:52.733Z,15.20
2022-09-17T11:25:34.270Z,15.40
2022-09-17T11:28:12.373Z,15.40
2022-09-17T11:30:52.258Z,15.60
2022-09-17T11:33:53.081Z,15.60
2022-09-17T11:36:26.338Z,15.60
2022-09-17T11:39:00.187Z,15.70
2022-09-17T11:41:32.573Z,15.80
2022-09-17T11:44:09.207Z,15.80
2022-09-17T11:46:44.149Z,15.90
2022-09-17T11:49:18.009Z,15.80
2022-09-17T11:51:51.400Z,16.00
2022-09-17T11:54:27.211Z,15.90
2022-09-17T11:56:59.816Z,15.90
2022-09-17T11:59:34.864Z,16.00
2022-09-17T12:02:06.823Z,15.90
2022-09-17T12:04:43.934Z,15.90
2022-09-17T12:07:35.145Z,15.80
2022-09-17T12:10:20.944Z,15.80
2022-09-17T12:12:55.264Z,16.00
2022-09-17T12:15:25.711Z,16.10
2022-09-17T12:18:27.626Z,16.00
2022-09-17T12:20:52.879Z,16.00
2022-09-17T12:23:31.731Z,16.00
2022-09-17T12:26:11.378Z,16.10
2022-09-17T12:28:47.652Z,16.10
2022-09-17T12:31:25.814Z,16.20
2022-09-17T12:33:59.824Z,16.20
2022-09-17T12:36:48.841Z,16.30
2022-09-17T12:39:35.503Z,16.20
2022-09-17T12:42:20.502Z,16.20
2022-09-17T12:45:05.668Z,16.30
2022-09-17T12:47:56.734Z,16.20
2022-09-17T12:50:37.428Z,16.30
2022-09-17T12:53:17.192Z,16.20
2022-09-17T12:55:59.510Z,16.20
2022-09-17T12:58:53.830Z,16.20
2022-09-17T13:01:29.531Z,16.40
2022-09-17T13:04:09.496Z,16.30
2022-09-17T13:07:15.849Z,16.40
2022-09-17T13:09:57.131Z,16.50
2022-09-17T13:12:31.568Z,16.60
2022-09-17T13:18:12.954Z,16.60
2022-09-17T13:20:56.331Z,16.70
2022-09-17T13:23:37.008Z,16.80
2022-09-17T13:26:08.250Z,17.00
2022-09-17T13:28:46.772Z,16.80
2022-09-17T13:31:21.819Z,16.80
2022-09-17T13:33:57.775Z,16.50
2022-09-17T13:36:50.176Z,16.20
2022-09-17T13:39:38.622Z,16.00
2022-09-17T13:42:10.588Z,15.90
2022-09-17T13:44:43.004Z,15.80
2022-09-17T13:47:26.185Z,15.80
2022-09-17T13:49:58.599Z,15.80
2022-09-17T13:52:38.890Z,15.80
2022-09-17T13:55:08.830Z,15.90
2022-09-17T13:57:49.873Z,16.00
2022-09-17T14:00:50.275Z,16.00
2022-09-17T14:03:54.557Z,16.10
2022-09-17T14:06:53.855Z,16.20
2022-09-17T14:09:52.918Z,16.20
2022-09-17T14:13:02.026Z,16.30
2022-09-17T14:15:57.707Z,16.30
2022-09-17T14:18:57.039Z,16.30
2022-09-17T14:21:30.137Z,16.30
2022-09-17T14:24:00.156Z,16.40
2022-09-17T14:26:53.506Z,16.30
2022-09-17T14:29:54.441Z,16.30
2022-09-17T14:32:32.607Z,16.40
2022-09-17T14:35:02.621Z,16.40
2022-09-17T14:37:41.078Z,16.40
2022-09-17T14:40:11.386Z,16.60
2022-09-17T14:42:40.144Z,16.60
2022-09-17T14:45:17.064Z,16.60
2022-09-17T14:47:44.935Z,16.50
2022-09-17T14:50:21.890Z,16.40
2022-09-17T14:52:53.207Z,16.40
2022-09-17T14:55:26.400Z,16.30
2022-09-17T14:57:55.798Z,16.40
2022-09-17T15:00:25.937Z,16.40
2022-09-17T15:02:59.418Z,16.30
2022-09-17T15:05:31.641Z,16.20
2022-09-17T15:08:15.601Z,16.20
2022-09-17T15:10:49.875Z,16.20
2022-09-17T15:13:21.862Z,16.30
2022-09-17T15:15:57.500Z,16.50
2022-09-17T15:18:33.822Z,16.20
2022-09-17T15:21:05.339Z,16.20
2022-09-17T15:23:36.079Z,16.30
2022-09-17T15:26:04.414Z,16.10
2022-09-17T15:28:37.918Z,16.00
2022-09-17T15:31:08.159Z,16.10
2022-09-17T15:33:36.448Z,16.20
2022-09-17T15:36:19.757Z,16.20
2022-09-17T15:38:49.803Z,16.10
2022-09-17T15:41:31.208Z,16.40
2022-09-17T15:44:31.766Z,16.40
2022-09-17T15:47:33.760Z,16.40
2022-09-17T15:50:16.560Z,16.50
2022-09-17T15:52:44.964Z,16.60
2022-09-17T15:55:31.510Z,16.40
2022-09-17T15:58:01.867Z,16.30
2022-09-17T16:00:30.006Z,16.30
2022-09-17T16:03:17.888Z,16.40
2022-09-17T16:05:47.767Z,16.40
2022-09-17T16:08:23.634Z,16.20
2022-09-17T16:10:53.411Z,15.80
2022-09-17T16:13:25.143Z,15.50
2022-09-17T16:15:56.169Z,15.30
2022-09-17T16:18:23.988Z,15.30
2022-09-17T16:20:51.794Z,15.10
2022-09-17T16:23:20.107Z,15.10
2022-09-17T16:25:50.384Z,15.10
2022-09-17T16:28:21.174Z,15.10
2022-09-17T16:30:50.838Z,15.00
2022-09-17T16:33:19.816Z,15.20
2022-09-17T16:35:47.944Z,15.10
2022-09-17T16:38:16.047Z,15.00
2022-09-17T16:40:46.645Z,15.00
2022-09-17T16:43:15.059Z,15.00
2022-09-17T16:45:44.848Z,15.00
2022-09-17T16:48:12.609Z,15.00
2022-09-17T16:50:43.056Z,14.90
2022-09-17T16:53:10.992Z,14.90
2022-09-17T16:55:40.072Z,14.90
2022-09-17T16:58:08.165Z,14.80
2022-09-17T17:00:37.211Z,14.80
2022-09-17T17:03:06.998Z,14.80
2022-09-17T17:05:37.885Z,14.80
2022-09-17T17:08:06.948Z,14.90
2022-09-17T17:10:35.688Z,14.90
2022-09-17T17:13:03.732Z,14.80
2022-09-17T17:15:31.859Z,14.70
2022-09-17T17:17:59.734Z,14.60
2022-09-17T17:20:29.538Z,14.50
2022-09-17T17:22:57.481Z,14.50
2022-09-17T17:25:27.109Z,14.50
2022-09-17T17:27:55.613Z,14.50
2022-09-17T17:30:23.487Z,14.40
2022-09-17T17:32:53.355Z,14.40
2022-09-17T17:35:22.073Z,14.30
2022-09-17T17:37:51.450Z,14.40
2022-09-17T17:40:20.885Z,14.30
2022-09-17T17:42:53.153Z,14.20
2022-09-17T17:45:21.787Z,14.20
2022-09-17T17:47:49.876Z,14.10
2022-09-17T17:50:18.002Z,14.20
2022-09-17T17:52:48.134Z,14.10
2022-09-17T17:55:18.000Z,14.10
2022-09-17T17:57:46.044Z,14.00
2022-09-17T18:00:16.731Z,14.00
2022-09-17T18:02:44.802Z,14.00
2022-09-17T18:05:13.259Z,14.00
2022-09-17T18:07:41.256Z,14.10
2022-09-17T18:10:09.759Z,14.20
2022-09-17T18:12:39.135Z,14.10
2022-09-17T18:15:08.020Z,14.00
2022-09-17T18:17:36.658Z,13.90
2022-09-17T18:20:05.234Z,13.70
2022-09-17T18:22:33.159Z,13.70
2022-09-17T18:25:01.115Z,13.60
2022-09-17T18:27:29.464Z,13.60
2022-09-17T18:29:58.963Z,13.60
2022-09-17T18:32:27.062Z,13.60
2022-09-17T18:34:54.939Z,13.50
2022-09-17T18:37:24.097Z,13.50
2022-09-17T18:39:59.778Z,13.40
2022-09-17T18:42:27.819Z,13.50
2022-09-17T18:44:55.825Z,13.50
2022-09-17T18:47:25.406Z,13.50
2022-09-17T18:49:53.319Z,13.40
2022-09-17T18:52:21.555Z,13.50
2022-09-17T18:54:49.751Z,13.50
2022-09-17T18:57:17.659Z,13.50
2022-09-17T18:59:45.611Z,13.50
2022-09-17T19:02:13.882Z,13.50
2022-09-17T19:04:43.323Z,13.50
2022-09-17T19:07:11.442Z,13.40
2022-09-17T19:09:39.302Z,13.50
2022-09-17T19:12:07.491Z,13.70
2022-09-17T19:14:35.672Z,13.60
2022-09-17T19:17:03.658Z,13.50
2022-09-17T19:19:31.548Z,13.50
2022-09-17T19:22:00.800Z,13.50
2022-09-17T19:24:28.642Z,13.40
2022-09-17T19:26:56.549Z,13.40
2022-09-17T19:29:24.834Z,13.50
2022-09-17T19:31:52.997Z,13.40
2022-09-17T19:34:24.605Z,13.50
2022-09-17T19:36:53.702Z,13.70
2022-09-17T19:39:23.051Z,13.60
2022-09-17T19:41:51.612Z,13.60
2022-09-17T19:44:19.909Z,13.50
2022-09-17T19:46:49.969Z,13.50
2022-09-17T19:49:18.837Z,13.50
2022-09-17T19:51:46.888Z,13.60
2022-09-17T19:54:14.751Z,13.50
2022-09-17T19:56:44.067Z,13.60
2022-09-17T19:59:11.951Z,13.60
2022-09-17T20:01:44.893Z,13.60
2022-09-17T20:04:15.416Z,13.60
2022-09-17T20:06:43.706Z,13.50
2022-09-17T20:09:11.810Z,13.50
2022-09-17T20:11:41.250Z,13.50
2022-09-17T20:14:12.141Z,13.50
2022-09-17T20:16:41.466Z,13.50
2022-09-17T20:19:11.573Z,13.50
2022-09-17T20:21:39.676Z,13.50
2022-09-17T20:24:08.463Z,13.40
2022-09-17T20:26:36.863Z,13.40
2022-09-17T20:29:05.393Z,13.30
2022-09-17T20:31:35.149Z,13.40
2022-09-17T20:34:05.619Z,13.50
2022-09-17T20:36:35.989Z,13.20
2022-09-17T20:39:17.910Z,13.30
2022-09-17T20:41:47.866Z,13.30
2022-09-17T20:44:17.730Z,13.30
2022-09-17T20:46:47.080Z,13.20
2022-09-17T20:49:15.402Z,13.30
2022-09-17T20:51:43.370Z,13.20
2022-09-17T20:54:11.386Z,13.10
2022-09-17T20:56:39.647Z,13.10
2022-09-17T20:59:14.395Z,13.00
2022-09-17T21:01:45.545Z,12.90
2022-09-17T21:04:17.205Z,12.90
2022-09-17T21:06:46.235Z,12.90
2022-09-17T21:09:16.746Z,12.90
2022-09-17T21:11:46.269Z,13.00
2022-09-17T21:14:15.880Z,13.10
2022-09-17T21:16:47.446Z,13.00
2022-09-17T21:19:16.952Z,13.00
2022-09-17T21:21:45.112Z,12.90
2022-09-17T21:24:13.229Z,12.80
2022-09-17T21:26:41.373Z,12.90
2022-09-17T21:29:09.307Z,12.90
2022-09-17T21:31:38.557Z,12.90
2022-09-17T21:34:07.889Z,12.90
2022-09-17T21:36:38.558Z,13.00
2022-09-17T21:39:10.048Z,13.00
2022-09-17T21:41:42.372Z,12.90
2022-09-17T21:44:11.633Z,12.90
2022-09-17T21:46:41.705Z,13.00
2022-09-17T21:49:10.025Z,13.00
2022-09-17T21:51:41.001Z,13.00
2022-09-17T21:54:10.719Z,13.00
2022-09-17T21:56:39.162Z,13.00
2022-09-17T21:59:08.842Z,13.00
2022-09-17T22:01:39.833Z,13.10
2022-09-17T22:04:09.137Z,13.00
2022-09-17T22:06:37.978Z,13.10
2022-09-17T22:09:08.928Z,13.00
2022-09-17T22:11:38.233Z,13.10
2022-09-17T22:14:11.054Z,13.10
2022-09-17T22:16:41.790Z,13.10
2022-09-17T22:19:11.962Z,13.10
2022-09-17T22:21:42.406Z,13.10
2022-09-17T22:24:12.872Z,13.10
2022-09-17T22:26:44.397Z,13.10
2022-09-17T22:29:14.430Z,13.10
2022-09-17T22:31:42.639Z,13.00
2022-09-17T22:34:11.598Z,13.00
2022-09-17T22:36:39.971Z,13.00
2022-09-17T22:39:08.333Z,13.00
2022-09-17T22:41:42.902Z,13.00
2022-09-17T22:44:14.663Z,13.00
2022-09-17T22:46:43.525Z,13.10
2022-09-17T22:49:12.299Z,13.10
2022-09-17T22:51:41.485Z,13.10
2022-09-17T22:54:12.523Z,13.10
2022-09-17T22:56:42.553Z,13.10
2022-09-17T22:59:10.792Z,13.00
2022-09-17T23:01:39.754Z,13.10
2022-09-17T23:04:08.271Z,13.00
2022-09-17T23:06:39.054Z,13.00
2022-09-17T23:09:07.483Z,13.00
2022-09-17T23:11:37.534Z,13.00
2022-09-17T23:14:08.970Z,13.00
2022-09-17T23:16:38.692Z,13.00
2022-09-17T23:19:06.922Z,13.00
2022-09-17T23:21:34.820Z,13.00
2022-09-17T23:24:03.657Z,13.00
2022-09-17T23:26:31.754Z,13.00
2022-09-17T23:29:04.380Z,13.00
2022-09-17T23:31:35.788Z,13.00
2022-09-17T23:34:05.294Z,13.10
2022-09-17T23:36:34.897Z,13.10
2022-09-17T23:39:03.255Z,13.10
2022-09-17T23:41:33.137Z,13.10
2022-09-17T23:44:02.972Z,13.10
2022-09-17T23:46:35.326Z,13.10
2022-09-17T23:49:04.999Z,13.20
2022-09-17T23:51:35.144Z,13.20
2022-09-17T23:54:03.219Z,13.10
2022-09-17T23:56:31.310Z,13.00
2022-09-17T23:59:01.338Z,13.00
